sensor_id;sensor_type;location;lat;lon;timestamp;temperature;humidity
16505;HTU21D;8365;51.030;4.696;2023-02-13T00:00:49;6.24;118.99
16505;HTU21D;8365;51.030;4.696;2023-02-13T00:03:19;6.22;118.99
16505;HTU21D;8365;51.030;4.696;2023-02-13T00:05:49;6.17;118.99
16505;HTU21D;8365;51.030;4.696;2023-02-13T00:08:20;6.13;118.99
16505;HTU21D;8365;51.030;4.696;2023-02-13T00:10:53;6.04;118.99
16505;HTU21D;8365;51.030;4.696;2023-02-13T00:13:23;6.07;118.99
16505;HTU21D;8365;51.030;4.696;2023-02-13T00:15:55;6.06;118.99
16505;HTU21D;8365;51.030;4.696;2023-02-13T00:18:26;6.05;118.99
16505;HTU21D;8365;51.030;4.696;2023-02-13T00:20:58;5.99;118.99
16505;HTU21D;8365;51.030;4.696;2023-02-13T00:23:30;5.98;118.99
16505;HTU21D;8365;51.030;4.696;2023-02-13T00:26:09;5.85;118.99
16505;HTU21D;8365;51.030;4.696;2023-02-13T00:28:41;5.83;118.99
16505;HTU21D;8365;51.030;4.696;2023-02-13T00:31:14;5.77;118.99
16505;HTU21D;8365;51.030;4.696;2023-02-13T00:33:45;5.67;118.99
16505;HTU21D;8365;51.030;4.696;2023-02-13T00:36:18;5.48;118.99
16505;HTU21D;8365;51.030;4.696;2023-02-13T00:38:49;5.40;118.99
16505;HTU21D;8365;51.030;4.696;2023-02-13T00:41:20;5.49;118.99
16505;HTU21D;8365;51.030;4.696;2023-02-13T00:43:51;5.50;118.99
16505;HTU21D;8365;51.030;4.696;2023-02-13T00:46:21;5.51;118.99
16505;HTU21D;8365;51.030;4.696;2023-02-13T00:48:52;5.45;118.99
16505;HTU21D;8365;51.030;4.696;2023-02-13T00:51:22;5.39;118.99
16505;HTU21D;8365;51.030;4.696;2023-02-13T00:53:53;5.47;118.99
16505;HTU21D;8365;51.030;4.696;2023-02-13T00:56:23;5.40;118.99
16505;HTU21D;8365;51.030;4.696;2023-02-13T00:58:54;5.43;118.99
16505;HTU21D;8365;51.030;4.696;2023-02-13T01:01:26;5.40;118.99
16505;HTU21D;8365;51.030;4.696;2023-02-13T01:03:57;5.42;118.99
16505;HTU21D;8365;51.030;4.696;2023-02-13T01:06:27;5.42;118.99
16505;HTU21D;8365;51.030;4.696;2023-02-13T01:08:58;5.30;118.99
16505;HTU21D;8365;51.030;4.696;2023-02-13T01:11:28;5.31;118.99
16505;HTU21D;8365;51.030;4.696;2023-02-13T01:13:59;5.30;118.99
16505;HTU21D;8365;51.030;4.696;2023-02-13T01:16:29;5.24;118.99
16505;HTU21D;8365;51.030;4.696;2023-02-13T01:19:00;5.26;118.99
16505;HTU21D;8365;51.030;4.696;2023-02-13T01:21:33;5.19;118.99
16505;HTU21D;8365;51.030;4.696;2023-02-13T01:24:04;5.21;118.99
16505;HTU21D;8365;51.030;4.696;2023-02-13T01:26:35;5.18;118.99
16505;HTU21D;8365;51.030;4.696;2023-02-13T01:29:05;5.13;118.99
16505;HTU21D;8365;51.030;4.696;2023-02-13T01:31:36;5.17;118.99
16505;HTU21D;8365;51.030;4.696;2023-02-13T01:34:06;5.10;118.99
16505;HTU21D;8365;51.030;4.696;2023-02-13T01:36:37;5.07;118.99
16505;HTU21D;8365;51.030;4.696;2023-02-13T01:39:10;4.98;118.99
16505;HTU21D;8365;51.030;4.696;2023-02-13T01:41:41;4.94;118.99
16505;HTU21D;8365;51.030;4.696;2023-02-13T01:53:00;4.59;118.99
16505;HTU21D;8365;51.030;4.696;2023-02-13T01:55:43;4.58;118.95
16505;HTU21D;8365;51.030;4.696;2023-02-13T01:58:19;4.60;118.99
16505;HTU21D;8365;51.030;4.696;2023-02-13T02:00:50;4.60;118.99
16505;HTU21D;8365;51.030;4.696;2023-02-13T02:06:27;4.57;118.99
16505;HTU21D;8365;51.030;4.696;2023-02-13T02:09:03;4.54;118.99
16505;HTU21D;8365;51.030;4.696;2023-02-13T02:14:16;4.57;118.99
16505;HTU21D;8365;51.030;4.696;2023-02-13T02:16:48;4.56;118.99
16505;HTU21D;8365;51.030;4.696;2023-02-13T02:19:49;4.61;118.99
16505;HTU21D;8365;51.030;4.696;2023-02-13T02:25:26;4.31;118.99
16505;HTU21D;8365;51.030;4.696;2023-02-13T02:39:11;3.73;118.99
16505;HTU21D;8365;51.030;4.696;2023-02-13T02:41:57;3.44;118.99
16505;HTU21D;8365;51.030;4.696;2023-02-13T02:44:55;3.65;118.99
16505;HTU21D;8365;51.030;4.696;2023-02-13T02:47:40;3.58;118.99
16505;HTU21D;8365;51.030;4.696;2023-02-13T02:50:51;3.48;118.99
16505;HTU21D;8365;51.030;4.696;2023-02-13T02:53:30;3.46;118.99
16505;HTU21D;8365;51.030;4.696;2023-02-13T02:56:24;3.49;118.99
16505;HTU21D;8365;51.030;4.696;2023-02-13T02:59:12;3.17;118.99
16505;HTU21D;8365;51.030;4.696;2023-02-13T03:02:04;3.41;118.99
16505;HTU21D;8365;51.030;4.696;2023-02-13T03:04:55;3.27;118.99
16505;HTU21D;8365;51.030;4.696;2023-02-13T03:07:46;3.06;118.99
16505;HTU21D;8365;51.030;4.696;2023-02-13T03:10:28;3.27;118.99
16505;HTU21D;8365;51.030;4.696;2023-02-13T03:13:38;3.27;118.99
16505;HTU21D;8365;51.030;4.696;2023-02-13T03:16:23;3.35;118.99
16505;HTU21D;8365;51.030;4.696;2023-02-13T03:19:26;3.45;118.99
16505;HTU21D;8365;51.030;4.696;2023-02-13T03:28:43;3.03;118.99
16505;HTU21D;8365;51.030;4.696;2023-02-13T03:31:51;3.19;118.99
16505;HTU21D;8365;51.030;4.696;2023-02-13T03:34:36;3.10;118.99
16505;HTU21D;8365;51.030;4.696;2023-02-13T03:37:30;3.03;118.99
16505;HTU21D;8365;51.030;4.696;2023-02-13T03:40:27;2.99;118.99
16505;HTU21D;8365;51.030;4.696;2023-02-13T03:43:07;3.04;118.99
16505;HTU21D;8365;51.030;4.696;2023-02-13T03:45:43;3.01;118.99
16505;HTU21D;8365;51.030;4.696;2023-02-13T03:48:29;3.01;118.99
16505;HTU21D;8365;51.030;4.696;2023-02-13T03:51:31;2.93;118.99
16505;HTU21D;8365;51.030;4.696;2023-02-13T03:54:19;2.95;118.99
16505;HTU21D;8365;51.030;4.696;2023-02-13T03:56:53;3.08;118.99
16505;HTU21D;8365;51.030;4.696;2023-02-13T03:59:42;3.02;118.99
16505;HTU21D;8365;51.030;4.696;2023-02-13T04:02:16;2.82;118.99
16505;HTU21D;8365;51.030;4.696;2023-02-13T04:05:26;2.78;118.99
16505;HTU21D;8365;51.030;4.696;2023-02-13T04:07:49;2.88;118.99
16505;HTU21D;8365;51.030;4.696;2023-02-13T04:10:21;3.03;118.99
16505;HTU21D;8365;51.030;4.696;2023-02-13T04:13:17;3.23;118.99
16505;HTU21D;8365;51.030;4.696;2023-02-13T04:15:57;3.28;118.99
16505;HTU21D;8365;51.030;4.696;2023-02-13T04:18:31;3.17;118.99
16505;HTU21D;8365;51.030;4.696;2023-02-13T04:21:03;3.24;118.99
16505;HTU21D;8365;51.030;4.696;2023-02-13T04:23:37;3.28;118.99
16505;HTU21D;8365;51.030;4.696;2023-02-13T04:26:14;3.32;118.99
16505;HTU21D;8365;51.030;4.696;2023-02-13T04:28:46;3.35;118.99
16505;HTU21D;8365;51.030;4.696;2023-02-13T04:31:16;3.41;118.99
16505;HTU21D;8365;51.030;4.696;2023-02-13T04:33:47;3.50;118.99
16505;HTU21D;8365;51.030;4.696;2023-02-13T04:36:17;3.59;118.99
16505;HTU21D;8365;51.030;4.696;2023-02-13T04:38:49;3.50;118.99
16505;HTU21D;8365;51.030;4.696;2023-02-13T04:41:19;3.43;118.99
16505;HTU21D;8365;51.030;4.696;2023-02-13T04:43:52;3.13;118.99
16505;HTU21D;8365;51.030;4.696;2023-02-13T04:46:23;2.96;118.99
16505;HTU21D;8365;51.030;4.696;2023-02-13T04:48:53;2.93;118.99
16505;HTU21D;8365;51.030;4.696;2023-02-13T04:51:24;2.94;118.99
16505;HTU21D;8365;51.030;4.696;2023-02-13T04:53:54;2.76;118.99
16505;HTU21D;8365;51.030;4.696;2023-02-13T04:56:27;2.62;118.99
16505;HTU21D;8365;51.030;4.696;2023-02-13T04:59:00;2.70;118.99
16505;HTU21D;8365;51.030;4.696;2023-02-13T05:01:31;2.75;118.99
16505;HTU21D;8365;51.030;4.696;2023-02-13T05:04:01;2.65;118.99
16505;HTU21D;8365;51.030;4.696;2023-02-13T05:06:34;2.70;118.99
16505;HTU21D;8365;51.030;4.696;2023-02-13T05:09:04;2.62;118.99
16505;HTU21D;8365;51.030;4.696;2023-02-13T05:11:35;2.97;118.99
16505;HTU21D;8365;51.030;4.696;2023-02-13T05:14:05;2.84;118.99
16505;HTU21D;8365;51.030;4.696;2023-02-13T05:16:36;2.95;118.99
16505;HTU21D;8365;51.030;4.696;2023-02-13T05:19:07;2.88;118.99
16505;HTU21D;8365;51.030;4.696;2023-02-13T05:21:37;2.84;118.99
16505;HTU21D;8365;51.030;4.696;2023-02-13T05:24:37;2.96;118.99
16505;HTU21D;8365;51.030;4.696;2023-02-13T05:27:07;2.86;118.99
16505;HTU21D;8365;51.030;4.696;2023-02-13T05:29:38;2.76;118.99
16505;HTU21D;8365;51.030;4.696;2023-02-13T05:32:08;2.91;118.99
16505;HTU21D;8365;51.030;4.696;2023-02-13T05:34:39;2.95;118.99
16505;HTU21D;8365;51.030;4.696;2023-02-13T05:37:12;2.79;118.99
16505;HTU21D;8365;51.030;4.696;2023-02-13T05:39:44;2.65;118.99
16505;HTU21D;8365;51.030;4.696;2023-02-13T05:42:15;2.93;118.99
16505;HTU21D;8365;51.030;4.696;2023-02-13T05:44:45;2.94;118.99
16505;HTU21D;8365;51.030;4.696;2023-02-13T05:47:16;2.97;118.99
16505;HTU21D;8365;51.030;4.696;2023-02-13T05:49:46;2.83;118.99
16505;HTU21D;8365;51.030;4.696;2023-02-13T05:52:17;2.96;118.99
16505;HTU21D;8365;51.030;4.696;2023-02-13T05:54:47;3.00;118.99
16505;HTU21D;8365;51.030;4.696;2023-02-13T05:57:18;2.98;118.99
16505;HTU21D;8365;51.030;4.696;2023-02-13T05:59:48;3.09;118.99
16505;HTU21D;8365;51.030;4.696;2023-02-13T06:02:19;3.03;118.99
16505;HTU21D;8365;51.030;4.696;2023-02-13T06:04:49;2.73;118.99
16505;HTU21D;8365;51.030;4.696;2023-02-13T06:07:20;2.87;118.99
16505;HTU21D;8365;51.030;4.696;2023-02-13T06:09:50;2.93;118.99
16505;HTU21D;8365;51.030;4.696;2023-02-13T06:12:20;2.72;118.99
16505;HTU21D;8365;51.030;4.696;2023-02-13T06:14:51;2.42;118.99
16505;HTU21D;8365;51.030;4.696;2023-02-13T06:17:21;2.39;118.99
16505;HTU21D;8365;51.030;4.696;2023-02-13T06:19:52;2.53;118.99
16505;HTU21D;8365;51.030;4.696;2023-02-13T06:22:22;2.71;118.99
16505;HTU21D;8365;51.030;4.696;2023-02-13T06:24:53;2.70;118.99
16505;HTU21D;8365;51.030;4.696;2023-02-13T06:27:25;2.62;118.99
16505;HTU21D;8365;51.030;4.696;2023-02-13T06:29:56;2.70;118.99
16505;HTU21D;8365;51.030;4.696;2023-02-13T06:32:26;2.75;118.99
16505;HTU21D;8365;51.030;4.696;2023-02-13T06:34:57;2.69;118.99
16505;HTU21D;8365;51.030;4.696;2023-02-13T06:37:27;2.54;118.99
16505;HTU21D;8365;51.030;4.696;2023-02-13T06:39:58;1.80;118.99
16505;HTU21D;8365;51.030;4.696;2023-02-13T06:42:28;1.24;118.99
16505;HTU21D;8365;51.030;4.696;2023-02-13T06:44:59;1.24;118.99
16505;HTU21D;8365;51.030;4.696;2023-02-13T06:47:29;1.27;118.99
16505;HTU21D;8365;51.030;4.696;2023-02-13T06:50:03;1.17;118.99
16505;HTU21D;8365;51.030;4.696;2023-02-13T06:52:37;0.93;118.99
16505;HTU21D;8365;51.030;4.696;2023-02-13T06:55:07;0.90;118.99
16505;HTU21D;8365;51.030;4.696;2023-02-13T06:57:42;0.68;118.99
16505;HTU21D;8365;51.030;4.696;2023-02-13T07:00:14;0.46;118.99
16505;HTU21D;8365;51.030;4.696;2023-02-13T07:02:46;0.49;118.99
16505;HTU21D;8365;51.030;4.696;2023-02-13T07:05:16;0.74;118.99
16505;HTU21D;8365;51.030;4.696;2023-02-13T07:07:47;0.82;118.99
16505;HTU21D;8365;51.030;4.696;2023-02-13T07:10:17;1.07;118.99
16505;HTU21D;8365;51.030;4.696;2023-02-13T07:12:48;1.09;118.99
16505;HTU21D;8365;51.030;4.696;2023-02-13T07:15:19;1.16;118.99
16505;HTU21D;8365;51.030;4.696;2023-02-13T07:17:56;1.37;118.99
16505;HTU21D;8365;51.030;4.696;2023-02-13T07:20:27;1.54;118.99
16505;HTU21D;8365;51.030;4.696;2023-02-13T07:23:03;1.68;118.99
16505;HTU21D;8365;51.030;4.696;2023-02-13T07:25:34;1.54;118.99
16505;HTU21D;8365;51.030;4.696;2023-02-13T07:28:05;1.73;118.99
16505;HTU21D;8365;51.030;4.696;2023-02-13T07:30:36;1.67;118.99
16505;HTU21D;8365;51.030;4.696;2023-02-13T07:33:06;2.05;118.99
16505;HTU21D;8365;51.030;4.696;2023-02-13T07:35:37;2.37;118.99
16505;HTU21D;8365;51.030;4.696;2023-02-13T07:38:10;2.55;118.99
16505;HTU21D;8365;51.030;4.696;2023-02-13T07:40:40;2.60;118.99
16505;HTU21D;8365;51.030;4.696;2023-02-13T07:43:12;2.83;118.99
16505;HTU21D;8365;51.030;4.696;2023-02-13T07:45:42;3.40;118.99
16505;HTU21D;8365;51.030;4.696;2023-02-13T07:48:15;3.84;118.99
16505;HTU21D;8365;51.030;4.696;2023-02-13T07:50:46;3.87;118.99
16505;HTU21D;8365;51.030;4.696;2023-02-13T07:53:16;4.04;116.03
16505;HTU21D;8365;51.030;4.696;2023-02-13T07:55:47;4.17;115.07
16505;HTU21D;8365;51.030;4.696;2023-02-13T07:58:17;3.78;115.26
16505;HTU21D;8365;51.030;4.696;2023-02-13T08:00:48;4.64;113.68
16505;HTU21D;8365;51.030;4.696;2023-02-13T08:03:18;4.84;110.64
16505;HTU21D;8365;51.030;4.696;2023-02-13T08:05:49;4.47;111.12
16505;HTU21D;8365;51.030;4.696;2023-02-13T08:08:19;5.03;109.87
16505;HTU21D;8365;51.030;4.696;2023-02-13T08:10:50;5.23;108.87
16505;HTU21D;8365;51.030;4.696;2023-02-13T08:13:39;5.39;107.82
16505;HTU21D;8365;51.030;4.696;2023-02-13T08:16:10;4.73;112.16
16505;HTU21D;8365;51.030;4.696;2023-02-13T08:18:40;5.25;109.75
16505;HTU21D;8365;51.030;4.696;2023-02-13T08:21:14;5.32;109.39
16505;HTU21D;8365;51.030;4.696;2023-02-13T08:23:44;5.35;108.36
16505;HTU21D;8365;51.030;4.696;2023-02-13T08:26:17;4.54;114.32
16505;HTU21D;8365;51.030;4.696;2023-02-13T08:28:48;4.68;116.19
16505;HTU21D;8365;51.030;4.696;2023-02-13T08:31:18;5.03;113.59
16505;HTU21D;8365;51.030;4.696;2023-02-13T08:33:51;4.77;114.12
16505;HTU21D;8365;51.030;4.696;2023-02-13T08:36:22;4.63;117.63
16505;HTU21D;8365;51.030;4.696;2023-02-13T08:38:53;4.58;118.99
16505;HTU21D;8365;51.030;4.696;2023-02-13T08:41:23;4.48;118.99
16505;HTU21D;8365;51.030;4.696;2023-02-13T08:43:54;4.44;118.99
16505;HTU21D;8365;51.030;4.696;2023-02-13T08:46:24;4.78;118.99
16505;HTU21D;8365;51.030;4.696;2023-02-13T08:48:55;4.65;118.99
16505;HTU21D;8365;51.030;4.696;2023-02-13T08:51:25;4.90;118.99
16505;HTU21D;8365;51.030;4.696;2023-02-13T08:53:56;4.83;118.99
16505;HTU21D;8365;51.030;4.696;2023-02-13T08:56:26;5.25;118.99
16505;HTU21D;8365;51.030;4.696;2023-02-13T08:58:57;5.70;118.99
16505;HTU21D;8365;51.030;4.696;2023-02-13T09:01:27;5.39;118.99
16505;HTU21D;8365;51.030;4.696;2023-02-13T09:03:58;5.45;118.99
16505;HTU21D;8365;51.030;4.696;2023-02-13T09:06:28;5.28;118.99
16505;HTU21D;8365;51.030;4.696;2023-02-13T09:08:59;5.60;118.99
16505;HTU21D;8365;51.030;4.696;2023-02-13T09:11:30;5.61;118.99
16505;HTU21D;8365;51.030;4.696;2023-02-13T09:14:00;5.74;118.99
16505;HTU21D;8365;51.030;4.696;2023-02-13T09:16:30;5.86;118.99
16505;HTU21D;8365;51.030;4.696;2023-02-13T09:19:01;6.27;118.99
16505;HTU21D;8365;51.030;4.696;2023-02-13T09:21:33;6.55;118.99
16505;HTU21D;8365;51.030;4.696;2023-02-13T09:24:09;6.55;118.99
16505;HTU21D;8365;51.030;4.696;2023-02-13T09:26:39;6.57;118.99
16505;HTU21D;8365;51.030;4.696;2023-02-13T09:29:10;6.54;118.99
16505;HTU21D;8365;51.030;4.696;2023-02-13T09:31:40;6.51;118.99
16505;HTU21D;8365;51.030;4.696;2023-02-13T09:34:11;6.80;118.99
16505;HTU21D;8365;51.030;4.696;2023-02-13T09:36:41;6.76;118.99
16505;HTU21D;8365;51.030;4.696;2023-02-13T09:39:12;6.63;118.99
16505;HTU21D;8365;51.030;4.696;2023-02-13T09:41:43;6.79;118.99
16505;HTU21D;8365;51.030;4.696;2023-02-13T09:44:38;7.05;118.99
16505;HTU21D;8365;51.030;4.696;2023-02-13T09:47:35;6.88;118.99
16505;HTU21D;8365;51.030;4.696;2023-02-13T09:50:28;6.73;118.99
16505;HTU21D;8365;51.030;4.696;2023-02-13T09:53:01;6.85;118.99
16505;HTU21D;8365;51.030;4.696;2023-02-13T10:01:31;7.40;118.99
16505;HTU21D;8365;51.030;4.696;2023-02-13T10:07:38;7.61;118.99
16505;HTU21D;8365;51.030;4.696;2023-02-13T10:15:50;8.07;118.99
16505;HTU21D;8365;51.030;4.696;2023-02-13T10:18:32;8.39;118.99
16505;HTU21D;8365;51.030;4.696;2023-02-13T10:21:06;8.77;118.99
16505;HTU21D;8365;51.030;4.696;2023-02-13T10:23:47;8.89;118.62
16505;HTU21D;8365;51.030;4.696;2023-02-13T10:26:21;9.02;118.86
16505;HTU21D;8365;51.030;4.696;2023-02-13T10:29:04;9.33;117.55
16505;HTU21D;8365;51.030;4.696;2023-02-13T10:31:55;9.34;113.56
16505;HTU21D;8365;51.030;4.696;2023-02-13T10:34:33;9.36;114.80
16505;HTU21D;8365;51.030;4.696;2023-02-13T10:37:14;9.94;114.31
16505;HTU21D;8365;51.030;4.696;2023-02-13T10:39:50;10.28;112.01
16505;HTU21D;8365;51.030;4.696;2023-02-13T10:48:28;11.86;104.05
16505;HTU21D;8365;51.030;4.696;2023-02-13T10:56:55;13.30;94.23
16505;HTU21D;8365;51.030;4.696;2023-02-13T10:59:43;14.54;89.59
16505;HTU21D;8365;51.030;4.696;2023-02-13T11:02:25;15.41;84.99
16505;HTU21D;8365;51.030;4.696;2023-02-13T11:07:41;16.79;77.60
16505;HTU21D;8365;51.030;4.696;2023-02-13T11:10:22;17.87;69.04
16505;HTU21D;8365;51.030;4.696;2023-02-13T11:12:52;18.49;64.53
16505;HTU21D;8365;51.030;4.696;2023-02-13T11:15:29;19.10;62.61
16505;HTU21D;8365;51.030;4.696;2023-02-13T11:18:16;19.77;56.24
16505;HTU21D;8365;51.030;4.696;2023-02-13T11:21:07;19.79;56.83
16505;HTU21D;8365;51.030;4.696;2023-02-13T11:23:52;20.77;53.85
16505;HTU21D;8365;51.030;4.696;2023-02-13T11:26:33;21.16;53.12
16505;HTU21D;8365;51.030;4.696;2023-02-13T11:29:15;20.73;51.47
16505;HTU21D;8365;51.030;4.696;2023-02-13T11:32:21;22.35;48.05
16505;HTU21D;8365;51.030;4.696;2023-02-13T11:34:52;23.18;45.21
16505;HTU21D;8365;51.030;4.696;2023-02-13T11:37:29;22.21;45.93
16505;HTU21D;8365;51.030;4.696;2023-02-13T11:40:28;22.42;45.35
16505;HTU21D;8365;51.030;4.696;2023-02-13T11:42:58;22.28;47.45
16505;HTU21D;8365;51.030;4.696;2023-02-13T11:45:31;21.78;46.67
16505;HTU21D;8365;51.030;4.696;2023-02-13T11:48:08;23.66;43.11
16505;HTU21D;8365;51.030;4.696;2023-02-13T11:50:39;23.88;41.84
16505;HTU21D;8365;51.030;4.696;2023-02-13T11:53:21;22.56;44.61
16505;HTU21D;8365;51.030;4.696;2023-02-13T11:56:18;22.66;43.16
16505;HTU21D;8365;51.030;4.696;2023-02-13T11:59:00;23.53;43.75
16505;HTU21D;8365;51.030;4.696;2023-02-13T12:01:31;23.28;43.74
16505;HTU21D;8365;51.030;4.696;2023-02-13T12:04:14;23.92;41.43
16505;HTU21D;8365;51.030;4.696;2023-02-13T12:07:27;25.08;38.75
16505;HTU21D;8365;51.030;4.696;2023-02-13T12:10:22;24.25;40.46
16505;HTU21D;8365;51.030;4.696;2023-02-13T12:13:35;23.40;41.10
16505;HTU21D;8365;51.030;4.696;2023-02-13T12:18:59;22.31;45.36
16505;HTU21D;8365;51.030;4.696;2023-02-13T12:21:56;24.12;42.60
16505;HTU21D;8365;51.030;4.696;2023-02-13T12:36:24;23.20;42.71
16505;HTU21D;8365;51.030;4.696;2023-02-13T12:39:17;24.38;40.08
16505;HTU21D;8365;51.030;4.696;2023-02-13T12:47:29;25.06;40.03
16505;HTU21D;8365;51.030;4.696;2023-02-13T12:53:29;23.76;40.53
16505;HTU21D;8365;51.030;4.696;2023-02-13T12:56:22;24.17;40.07
16505;HTU21D;8365;51.030;4.696;2023-02-13T13:04:41;24.19;39.33
16505;HTU21D;8365;51.030;4.696;2023-02-13T13:10:22;25.10;38.63
16505;HTU21D;8365;51.030;4.696;2023-02-13T13:13:08;23.07;40.30
16505;HTU21D;8365;51.030;4.696;2023-02-13T13:15:48;24.24;39.85
16505;HTU21D;8365;51.030;4.696;2023-02-13T13:24:00;23.29;42.00
16505;HTU21D;8365;51.030;4.696;2023-02-13T13:26:51;23.42;40.39
16505;HTU21D;8365;51.030;4.696;2023-02-13T13:29:34;23.06;40.55
16505;HTU21D;8365;51.030;4.696;2023-02-13T13:32:12;24.31;38.94
16505;HTU21D;8365;51.030;4.696;2023-02-13T13:34:46;24.23;40.42
16505;HTU21D;8365;51.030;4.696;2023-02-13T13:42:45;24.20;39.20
16505;HTU21D;8365;51.030;4.696;2023-02-13T13:48:23;22.58;44.50
16505;HTU21D;8365;51.030;4.696;2023-02-13T13:50:57;21.40;44.31
16505;HTU21D;8365;51.030;4.696;2023-02-13T13:53:28;22.81;42.78
16505;HTU21D;8365;51.030;4.696;2023-02-13T13:56:00;21.19;45.28
16505;HTU21D;8365;51.030;4.696;2023-02-13T14:03:46;22.63;43.86
16505;HTU21D;8365;51.030;4.696;2023-02-13T14:06:27;23.35;41.33
16505;HTU21D;8365;51.030;4.696;2023-02-13T14:11:56;23.23;40.81
16505;HTU21D;8365;51.030;4.696;2023-02-13T14:17:04;24.36;37.54
16505;HTU21D;8365;51.030;4.696;2023-02-13T14:19:37;23.82;38.11
16505;HTU21D;8365;51.030;4.696;2023-02-13T14:29:53;24.20;38.48
16505;HTU21D;8365;51.030;4.696;2023-02-13T14:32:36;23.34;38.67
16505;HTU21D;8365;51.030;4.696;2023-02-13T14:35:22;23.26;40.31
16505;HTU21D;8365;51.030;4.696;2023-02-13T14:37:56;23.08;40.59
16505;HTU21D;8365;51.030;4.696;2023-02-13T14:40:45;23.15;40.51
16505;HTU21D;8365;51.030;4.696;2023-02-13T14:46:38;23.07;40.56
16505;HTU21D;8365;51.030;4.696;2023-02-13T14:48:55;22.49;41.58
16505;HTU21D;8365;51.030;4.696;2023-02-13T14:51:38;23.16;41.10
16505;HTU21D;8365;51.030;4.696;2023-02-13T14:56:59;24.50;39.30
16505;HTU21D;8365;51.030;4.696;2023-02-13T14:59:36;23.62;39.01
16505;HTU21D;8365;51.030;4.696;2023-02-13T15:04:49;23.27;39.85
16505;HTU21D;8365;51.030;4.696;2023-02-13T15:07:27;22.26;41.58
16505;HTU21D;8365;51.030;4.696;2023-02-13T15:13:31;22.29;43.47
16505;HTU21D;8365;51.030;4.696;2023-02-13T15:18:44;22.71;43.01
16505;HTU21D;8365;51.030;4.696;2023-02-13T15:21:22;22.79;41.80
16505;HTU21D;8365;51.030;4.696;2023-02-13T15:24:02;22.96;42.16
16505;HTU21D;8365;51.030;4.696;2023-02-13T15:26:33;22.67;42.22
16505;HTU21D;8365;51.030;4.696;2023-02-13T15:29:17;22.22;42.43
16505;HTU21D;8365;51.030;4.696;2023-02-13T15:31:47;22.60;42.13
16505;HTU21D;8365;51.030;4.696;2023-02-13T15:34:23;22.83;42.05
16505;HTU21D;8365;51.030;4.696;2023-02-13T15:36:55;23.02;42.08
16505;HTU21D;8365;51.030;4.696;2023-02-13T15:39:29;22.68;42.48
16505;HTU21D;8365;51.030;4.696;2023-02-13T15:42:01;22.06;43.21
16505;HTU21D;8365;51.030;4.696;2023-02-13T15:44:35;22.13;43.77
16505;HTU21D;8365;51.030;4.696;2023-02-13T15:47:13;21.17;45.07
16505;HTU21D;8365;51.030;4.696;2023-02-13T15:49:46;21.81;44.46
16505;HTU21D;8365;51.030;4.696;2023-02-13T15:52:21;22.11;43.29
16505;HTU21D;8365;51.030;4.696;2023-02-13T15:54:53;21.65;44.06
16505;HTU21D;8365;51.030;4.696;2023-02-13T15:57:25;21.47;45.35
16505;HTU21D;8365;51.030;4.696;2023-02-13T15:59:58;20.65;46.54
16505;HTU21D;8365;51.030;4.696;2023-02-13T16:02:45;20.55;46.80
16505;HTU21D;8365;51.030;4.696;2023-02-13T16:05:17;19.56;49.11
16505;HTU21D;8365;51.030;4.696;2023-02-13T16:07:51;19.12;50.54
16505;HTU21D;8365;51.030;4.696;2023-02-13T16:13:02;18.55;52.58
16505;HTU21D;8365;51.030;4.696;2023-02-13T16:15:35;17.62;54.74
16505;HTU21D;8365;51.030;4.696;2023-02-13T16:18:17;17.31;56.96
16505;HTU21D;8365;51.030;4.696;2023-02-13T16:20:52;16.88;58.70
16505;HTU21D;8365;51.030;4.696;2023-02-13T16:23:23;16.93;58.35
16505;HTU21D;8365;51.030;4.696;2023-02-13T16:26:02;16.94;58.76
16505;HTU21D;8365;51.030;4.696;2023-02-13T16:28:35;17.08;60.40
16505;HTU21D;8365;51.030;4.696;2023-02-13T16:31:13;17.04;59.48
16505;HTU21D;8365;51.030;4.696;2023-02-13T16:33:44;17.01;59.99
16505;HTU21D;8365;51.030;4.696;2023-02-13T16:36:18;16.71;61.67
16505;HTU21D;8365;51.030;4.696;2023-02-13T16:38:49;16.42;61.73
16505;HTU21D;8365;51.030;4.696;2023-02-13T16:44:00;15.97;63.08
16505;HTU21D;8365;51.030;4.696;2023-02-13T16:54:29;14.77;70.38
16505;HTU21D;8365;51.030;4.696;2023-02-13T17:07:42;14.53;70.79
16505;HTU21D;8365;51.030;4.696;2023-02-13T17:13:20;14.15;72.16
16505;HTU21D;8365;51.030;4.696;2023-02-13T17:15:53;14.08;71.53
16505;HTU21D;8365;51.030;4.696;2023-02-13T17:18:26;13.96;72.40
16505;HTU21D;8365;51.030;4.696;2023-02-13T17:20:56;13.81;73.29
16505;HTU21D;8365;51.030;4.696;2023-02-13T17:23:27;13.67;73.03
16505;HTU21D;8365;51.030;4.696;2023-02-13T17:25:57;13.33;76.05
16505;HTU21D;8365;51.030;4.696;2023-02-13T17:28:28;13.40;76.84
16505;HTU21D;8365;51.030;4.696;2023-02-13T17:31:00;13.27;77.10
16505;HTU21D;8365;51.030;4.696;2023-02-13T17:33:31;13.11;79.85
16505;HTU21D;8365;51.030;4.696;2023-02-13T17:36:04;13.00;80.86
16505;HTU21D;8365;51.030;4.696;2023-02-13T17:38:34;13.01;81.89
16505;HTU21D;8365;51.030;4.696;2023-02-13T17:41:09;12.91;81.73
16505;HTU21D;8365;51.030;4.696;2023-02-13T17:43:41;12.74;83.03
16505;HTU21D;8365;51.030;4.696;2023-02-13T17:46:11;12.53;83.36
16505;HTU21D;8365;51.030;4.696;2023-02-13T17:48:44;12.62;83.92
16505;HTU21D;8365;51.030;4.696;2023-02-13T17:51:14;12.65;83.49
16505;HTU21D;8365;51.030;4.696;2023-02-13T17:53:45;12.55;83.14
16505;HTU21D;8365;51.030;4.696;2023-02-13T17:56:16;12.46;82.67
16505;HTU21D;8365;51.030;4.696;2023-02-13T17:58:49;12.38;82.91
16505;HTU21D;8365;51.030;4.696;2023-02-13T18:01:22;12.34;83.89
16505;HTU21D;8365;51.030;4.696;2023-02-13T18:03:53;12.13;85.05
16505;HTU21D;8365;51.030;4.696;2023-02-13T18:06:23;12.03;85.34
16505;HTU21D;8365;51.030;4.696;2023-02-13T18:08:54;12.01;85.93
16505;HTU21D;8365;51.030;4.696;2023-02-13T18:11:24;11.77;88.51
16505;HTU21D;8365;51.030;4.696;2023-02-13T18:13:55;11.63;90.08
16505;HTU21D;8365;51.030;4.696;2023-02-13T18:16:25;11.63;89.98
16505;HTU21D;8365;51.030;4.696;2023-02-13T18:18:55;11.63;90.05
16505;HTU21D;8365;51.030;4.696;2023-02-13T18:21:26;11.47;91.33
16505;HTU21D;8365;51.030;4.696;2023-02-13T18:23:56;11.30;91.67
16505;HTU21D;8365;51.030;4.696;2023-02-13T18:26:27;11.13;93.62
16505;HTU21D;8365;51.030;4.696;2023-02-13T18:28:57;10.98;95.85
16505;HTU21D;8365;51.030;4.696;2023-02-13T18:31:28;10.96;95.38
16505;HTU21D;8365;51.030;4.696;2023-02-13T18:33:59;11.10;94.47
16505;HTU21D;8365;51.030;4.696;2023-02-13T18:36:29;10.97;94.67
16505;HTU21D;8365;51.030;4.696;2023-02-13T18:39:00;10.94;94.83
16505;HTU21D;8365;51.030;4.696;2023-02-13T18:41:30;10.87;94.77
16505;HTU21D;8365;51.030;4.696;2023-02-13T18:44:00;10.81;94.53
16505;HTU21D;8365;51.030;4.696;2023-02-13T18:49:02;10.62;95.39
16505;HTU21D;8365;51.030;4.696;2023-02-13T18:51:33;10.59;96.10
16505;HTU21D;8365;51.030;4.696;2023-02-13T18:54:06;10.50;96.86
16505;HTU21D;8365;51.030;4.696;2023-02-13T18:56:37;10.42;97.59
16505;HTU21D;8365;51.030;4.696;2023-02-13T18:59:07;10.23;99.06
16505;HTU21D;8365;51.030;4.696;2023-02-13T19:01:40;10.20;99.30
16505;HTU21D;8365;51.030;4.696;2023-02-13T19:04:11;10.03;100.40
16505;HTU21D;8365;51.030;4.696;2023-02-13T19:06:43;9.93;101.32
16505;HTU21D;8365;51.030;4.696;2023-02-13T19:09:13;9.49;107.91
16505;HTU21D;8365;51.030;4.696;2023-02-13T19:11:44;9.20;108.85
16505;HTU21D;8365;51.030;4.696;2023-02-13T19:14:17;9.33;107.50